Latest Weather Observations for Wyndham Airport

IDW60801

Issued at 11:34 pm WST Wednesday 22 February 2017 (issued every 30 minutes, with the page automatically refreshed every 10 minutes)

About weather observations | Map of weather stations | Latest weather observations for WA | Other Formats
Station Details ID: 001006 Name: WYNDHAM AERO Lat: -15.51 Lon: 128.15 Height: 3.8 m
Data from the previous 72 hours. | See also: Recent months at Wyndham Airport
Date/Time
WST
Temp
°C
App
Temp
°C
Dew
Point
°C
Rel
Hum
%
Delta-T
°C
Wind Press
QNH
hPa
Press
MSL
hPa
Rain since
9am
mm
Dir  Spd
km/h
Gust
km/h
Spd
kts
Gust
kts
22/11:30pm 24.4 27.6 21.3 83 2.0 NW 6 7 3 4 1009.8 1009.8 0.0
22/11:00pm 24.5 27.4 21.0 81 2.3 NNW 7 9 4 5 1009.9 1009.9 0.0
22/10:30pm 25.2 27.8 20.5 75 3.1 NW 7 7 4 4 1010.0 1010.0 0.0
22/10:00pm 25.3 29.7 21.4 79 2.6 CALM 0 0 0 0 1010.0 1010.0 0.0
22/09:30pm 26.4 30.4 22.0 77 2.9 WSW 4 7 2 4 1010.1 1010.1 0.0
22/09:00pm 26.5 29.0 21.0 72 3.6 SW 9 13 5 7 1009.9 1009.9 0.0
22/08:30pm 26.7 29.5 20.5 69 4.1 N 6 9 3 5 1009.8 1009.8 0.0
22/08:00pm 27.0 30.1 21.1 70 3.9 NNW 6 7 3 4 1009.7 1009.7 0.0
22/07:30pm 28.6 31.4 20.9 63 5.1 WNW 7 9 4 5 1009.3 1009.3 0.0
22/07:00pm 28.9 31.9 20.9 62 5.3 W 6 7 3 4 1008.9 1008.9 0.0
22/06:30pm 29.1 29.5 18.2 51 7.0 NE 13 13 7 7 1008.5 1008.5 0.0
22/06:00pm 30.5 31.8 19.2 51 7.4 NE 11 13 6 7 1008.4 1008.4 0.0
22/05:30pm 33.5 34.8 18.4 40 9.8 ENE 9 11 5 6 1008.0 1008.0 0.0
22/05:00pm 34.4 34.2 16.7 34 11.3 ENE 13 17 7 9 1007.6 1007.6 0.0
22/04:30pm 36.1 36.3 15.8 30 12.8 ENE 9 15 5 8 1007.6 1007.6 0.0
22/04:00pm 36.0 35.8 14.6 27 13.3 ESE 9 17 5 9 1007.5 1007.5 0.0
22/03:30pm 36.4 36.3 15.0 28 13.4 ESE 9 15 5 8 1007.5 1007.5 0.0
22/03:00pm 36.4 35.6 16.0 29 13.0 ESE 15 20 8 11 1007.6 1007.6 0.0
22/02:30pm 36.5 35.7 15.0 27 13.5 ESE 13 22 7 12 1007.8 1007.8 0.0
22/02:00pm 36.8 36.8 13.5 24 14.3 NNE 6 9 3 5 1008.0 1008.0 0.0
22/01:30pm 36.5 36.2 14.5 27 13.7 E 9 15 5 8 1008.1 1008.1 0.0
22/01:00pm 36.1 35.5 14.7 28 13.3 NE 11 20 6 11 1008.5 1008.5 0.0
22/12:30pm 36.5 36.8 15.0 27 13.5 SE 7 11 4 6 1009.0 1009.0 0.0
22/12:00pm 35.5 37.6 19.4 38 10.7 SE 7 13 4 7 1009.4 1009.4 0.0
22/11:30am 35.4 38.6 18.9 37 10.9 CALM 0 6 0 3 1009.8 1009.8 0.0
22/11:00am 34.5 36.9 20.1 43 9.6 S 7 13 4 7 1010.3 1010.3 0.0
22/10:30am 34.0 37.4 22.7 51 7.8 SW 9 13 5 7 1010.7 1010.7 0.0
22/10:00am 32.9 36.6 23.2 56 6.7 WSW 9 15 5 8 1011.2 1011.2 0.0
22/09:30am 31.6 34.5 23.2 61 5.8 SW 13 17 7 9 1011.5 1011.5 0.0
22/09:00am 30.9 34.2 23.8 66 4.9 SW 13 19 7 10 1011.6 1011.6 0.0
22/08:30am 30.3 33.5 23.7 68 4.6 WSW 13 17 7 9 1011.8 1011.8 0.0
22/08:00am 29.7 34.0 23.6 69 4.2 W 7 13 4 7 1011.8 1011.8 0.0
22/07:30am 28.1 32.6 23.0 74 3.5 WSW 4 7 2 4 1011.7 1011.7 0.0
22/07:00am 27.3 32.6 23.1 78 2.9 CALM 0 0 0 0 1011.6 1011.6 0.0
22/06:30am 26.4 31.7 23.1 82 2.2 CALM 0 0 0 0 1011.3 1011.3 0.0
22/06:00am 24.6 29.7 22.7 89 1.3 CALM 0 0 0 0 1010.9 1010.9 0.0
22/05:30am 23.8 27.4 22.1 90 1.1 NW 6 7 3 4 1010.8 1010.8 0.0
22/05:00am 24.5 28.6 22.2 87 1.5 W 4 6 2 3 1010.5 1010.5 0.0
22/04:30am 24.0 27.9 22.6 92 0.9 NW 6 6 3 3 1010.3 1010.3 0.0
22/04:00am 23.8 28.9 22.6 93 0.8 CALM 0 0 0 0 1010.1 1010.1 0.0
22/03:30am 23.9 28.7 22.2 90 1.1 CALM 0 0 0 0 1009.8 1009.8 0.0
22/03:00am 24.2 28.8 21.7 86 1.7 CALM 0 0 0 0 1009.6 1009.6 0.0
22/02:30am 25.5 29.0 22.2 82 2.2 W 7 11 4 6 1009.5 1009.5 0.0
22/02:00am 25.7 29.4 22.6 83 2.1 W 7 9 4 5 1009.4 1009.4 0.0
22/01:30am 24.8 30.2 23.2 91 1.1 CALM 0 6 0 3 1009.4 1009.4 0.0
22/01:00am 24.8 28.8 22.7 88 1.4 WNW 6 9 3 5 1009.4 1009.4 0.0
22/12:30am 24.8 28.6 22.7 88 1.4 NW 7 9 4 5 1009.5 1009.5 0.0
22/12:00am 25.7 30.8 22.6 83 2.1 CALM 0 7 0 4 1009.8 1009.8 0.0
 
Date/Time
WST
Temp
°C
App
Temp
°C
Dew
Point
°C
Rel
Hum
%
Delta-T
°C
Wind Press
QNH
hPa
Press
MSL
hPa
Rain since
9am
mm
Dir  Spd
km/h
Gust
km/h
Spd
kts
Gust
kts
21/11:30pm 26.0 29.4 22.7 82 2.2 SSW 9 15 5 8 1010.0 1010.0 0.0
21/11:00pm 25.7 29.8 22.2 81 2.3 SSE 4 13 2 7 1010.2 1010.2 0.0
21/10:30pm 26.6 31.4 22.2 77 3.0 CALM 0 2 0 1 1010.3 1010.3 0.0
21/10:00pm 26.6 30.8 21.8 75 3.2 NE 2 7 1 4 1010.5 1010.5 0.0
21/09:30pm 26.7 30.4 21.5 73 3.5 NE 4 6 2 3 1010.5 1010.5 0.0
21/09:00pm 27.2 31.9 21.9 73 3.6 CALM 0 0 0 0 1010.5 1010.5 0.0
21/08:30pm 27.2 30.8 22.4 75 3.2 N 7 9 4 5 1010.2 1010.2 0.0
21/08:00pm 28.0 31.6 22.0 70 4.0 NNW 6 7 3 4 1009.9 1009.9 0.0
21/07:30pm 29.1 32.7 22.1 66 4.7 WNW 6 7 3 4 1009.6 1009.6 0.0
21/07:00pm 29.4 33.2 22.4 66 4.8 WNW 6 7 3 4 1009.2 1009.2 0.0
21/06:30pm 29.7 33.4 22.2 64 5.1 NNW 6 7 3 4 1008.9 1008.9 0.0
21/06:00pm 30.7 33.8 21.5 58 6.2 NE 7 7 4 4 1008.5 1008.5 0.0
21/05:30pm 31.8 34.4 20.4 51 7.6 NE 7 9 4 5 1008.1 1008.1 0.0
21/05:00pm 33.3 34.8 19.0 42 9.4 NE 9 9 5 5 1007.9 1007.9 0.0
21/04:30pm 34.3 35.2 16.6 34 11.2 ENE 7 11 4 6 1007.7 1007.7 0.0
21/04:00pm 34.7 35.2 16.5 33 11.6 ESE 9 13 5 7 1007.6 1007.6 0.0
21/03:30pm 35.7 36.7 15.4 29 12.7 ENE 4 9 2 5 1007.6 1007.6 0.0
21/03:00pm 35.2 36.4 17.4 34 11.5 ENE 7 13 4 7 1007.9 1007.9 0.0
21/02:30pm 35.3 35.8 17.5 34 11.5 E 11 15 6 8 1008.1 1008.1 0.0
21/02:00pm 35.6 36.4 16.4 32 12.2 SE 7 15 4 8 1008.2 1008.2 0.0
21/01:30pm 35.3 35.8 15.6 31 12.4 SE 7 13 4 7 1008.6 1008.6 0.0
21/01:00pm 35.2 35.1 17.0 34 11.7 E 13 17 7 9 1009.1 1009.1 0.0
21/12:30pm 35.0 36.0 17.7 36 11.2 ESE 9 15 5 8 1009.4 1009.4 0.0
21/12:00pm 34.8 36.1 17.1 35 11.4 N 6 11 3 6 1009.9 1009.9 0.0
21/11:30am 34.3 35.6 17.5 36 10.8 ESE 7 13 4 7 1010.7 1010.7 0.0
21/11:00am 34.1 35.9 18.2 39 10.3 SSW 6 11 3 6 1011.1 1011.1 0.0
21/10:30am 33.4 37.3 22.5 52 7.5 SW 6 11 3 6 1011.4 1011.4 0.0
21/10:00am 32.7 36.6 23.6 58 6.3 SW 9 13 5 7 1011.8 1011.8 0.0
21/09:30am 31.8 36.0 24.1 63 5.4 W 9 13 5 7 1012.1 1012.1 0.0
21/09:00am 30.8 35.2 24.4 68 4.5 WSW 9 13 5 7 1012.3 1012.3 0.0
21/08:30am 29.9 34.6 24.3 72 3.9 SW 7 13 4 7 1012.4 1012.4 0.0
21/08:00am 29.3 34.6 23.7 72 3.9 SW 2 9 1 5 1012.5 1012.5 0.0
21/07:30am 28.4 33.2 23.5 75 3.4 WSW 4 7 2 4 1012.2 1012.2 0.0
21/07:00am 27.5 32.3 24.1 82 2.3 WNW 6 7 3 4 1011.8 1011.8 0.0
21/06:30am 26.5 31.6 24.7 90 1.2 WNW 6 7 3 4 1011.3 1011.3 0.0
21/06:00am 26.0 31.5 24.6 92 1.0 W 4 9 2 5 1010.9 1010.9 0.0
21/05:30am 24.8 29.7 24.6 99 0.1 NW 7 7 4 4 1010.4 1010.4 0.0
21/05:00am 24.7 29.1 24.4 98 0.2 NW 9 9 5 5 1010.0 1010.0 0.0
21/04:30am 24.7 29.5 24.4 98 0.2 NW 7 9 4 5 1009.5 1009.5 0.0
21/04:00am 24.7 30.7 24.2 97 0.3 CALM 0 0 0 0 1009.6 1009.6 0.0
21/03:30am 25.0 30.8 24.0 94 0.7 CALM 0 0 0 0 1009.5 1009.5 0.0
21/03:00am 24.9 30.7 24.0 95 0.6 CALM 0 0 0 0 1009.2 1009.2 0.0
21/02:30am 25.0 30.7 23.8 93 0.8 CALM 0 0 0 0 1009.0 1009.0 0.0
21/02:00am 25.0 30.6 23.6 92 1.0 CALM 0 0 0 0 1008.9 1008.9 0.0
21/01:30am 25.5 31.1 23.6 89 1.3 CALM 0 0 0 0 1008.8 1008.8 0.0
21/01:00am 26.0 31.4 23.3 85 1.8 CALM 0 0 0 0 1009.1 1009.1 0.0
21/12:30am 25.8 31.1 23.1 85 1.8 CALM 0 0 0 0 1009.4 1009.4 0.0
21/12:00am 26.1 31.4 23.0 83 2.1 CALM 0 0 0 0 1009.5 1009.5 0.0
 
Date/Time
WST
Temp
°C
App
Temp
°C
Dew
Point
°C
Rel
Hum
%
Delta-T
°C
Wind Press
QNH
hPa
Press
MSL
hPa
Rain since
9am
mm
Dir  Spd
km/h
Gust
km/h
Spd
kts
Gust
kts
20/11:30pm 26.8 29.8 22.6 78 2.8 WSW 11 15 6 8 1009.7 1009.7 0.0
20/11:00pm 27.4 31.6 21.7 71 3.8 S 2 9 1 5 1009.9 1009.9 0.0
20/10:30pm 28.4 32.8 21.4 66 4.7 CALM 0 4 0 2 1010.0 1010.0 0.0
20/10:00pm 28.6 31.6 20.9 63 5.1 SW 6 11 3 6 1010.2 1010.2 0.0
20/09:30pm 28.6 33.1 21.6 66 4.7 CALM 0 0 0 0 1010.0 1010.0 0.0
20/09:00pm 28.9 32.3 21.7 65 4.8 NW 6 9 3 5 1009.8 1009.8 0.0
20/08:30pm 29.2 33.0 20.9 61 5.5 NW 2 6 1 3 1009.5 1009.5 0.0
20/08:00pm 29.5 32.5 20.9 60 5.7 S 6 9 3 5 1009.4 1009.4 0.0
20/07:30pm 29.8 31.5 20.1 56 6.4 NNW 11 13 6 7 1008.9 1008.9 0.0
20/07:00pm 30.0 31.4 20.3 56 6.4 NNW 13 15 7 8 1008.5 1008.5 0.0
20/06:30pm 30.2 32.1 21.3 59 6.0 N 13 15 7 8 1007.9 1007.9 0.0
20/06:00pm 30.8 32.8 21.6 58 6.2 N 13 19 7 10 1007.3 1007.3 0.0
20/05:30pm 31.8 33.8 22.2 56 6.5 N 15 20 8 11 1006.9 1006.9 0.0
20/05:00pm 32.8 35.4 22.6 55 7.0 NNW 13 24 7 13 1006.4 1006.4 0.0
20/04:30pm 34.3 36.3 20.7 45 9.1 NE 11 17 6 9 1006.1 1006.1 0.0
20/04:00pm 34.0 35.1 20.4 45 9.1 NE 15 20 8 11 1006.0 1006.0 0.0
20/03:30pm 34.8 36.4 20.7 43 9.5 ENE 13 19 7 10 1005.9 1005.9 0.0
20/03:00pm 35.2 37.9 22.2 47 8.9 ENE 11 19 6 10 1005.9 1005.9 0.0
20/02:30pm 35.1 35.9 20.6 42 9.7 ENE 17 22 9 12 1006.1 1006.1 0.0
20/02:00pm 35.1 37.8 21.4 45 9.3 N 9 15 5 8 1006.4 1006.4 0.0
20/01:30pm 34.6 38.7 23.0 51 8.0 N 6 13 3 7 1006.5 1006.5 0.0
20/01:00pm 33.3 37.2 23.0 54 7.1 WNW 7 15 4 8 1006.9 1006.9 0.0
20/12:30pm 33.9 37.6 23.9 56 7.0 ESE 11 15 6 8 1007.1 1007.1 0.0
20/12:00pm 33.4 36.5 25.4 63 5.7 SE 19 24 10 13 1007.3 1007.3 0.0
20/11:30am 32.6 35.8 24.9 64 5.4 E 17 26 9 14 1007.9 1007.9 0.0
20/11:00am 33.7 38.1 25.7 63 5.7 NE 13 17 7 9 1008.1 1008.1 0.0
20/10:30am 33.4 37.6 25.9 65 5.4 ENE 15 20 8 11 1008.6 1008.6 0.0
20/10:00am 32.9 38.0 26.7 70 4.5 E 13 20 7 11 1009.0 1009.0 0.0
20/09:30am 32.3 37.5 26.8 73 4.0 ESE 13 19 7 10 1009.4 1009.4 0.0
20/09:00am 31.4 36.9 26.2 74 3.7 ESE 9 15 5 8 1009.6 1009.6 0.0
20/08:30am 30.7 36.1 26.0 76 3.3 SE 9 11 5 6 1009.8 1009.8 0.0
20/08:00am 29.7 34.4 23.9 71 4.0 E 6 13 3 7 1009.8 1009.8 0.0
20/07:30am 29.1 35.1 24.2 75 3.4 CALM 0 2 0 1 1009.8 1009.8 0.0
20/07:00am 28.0 34.0 24.2 80 2.6 CALM 0 0 0 0 1009.5 1009.5 0.0
20/06:30am 27.2 33.3 24.5 85 1.9 CALM 0 0 0 0 1009.2 1009.2 0.0
20/06:00am 26.3 31.6 25.3 94 0.7 W 7 9 4 5 1008.6 1008.6 0.0
20/05:30am 25.9 32.6 25.4 97 0.3 CALM 0 0 0 0 1008.1 1008.1 0.0
20/05:00am 25.9 31.8 24.1 90 1.2 CALM 0 0 0 0 1007.9 1007.9 0.0
20/04:30am 25.9 31.7 23.9 89 1.4 CALM 0 0 0 0 1007.6 1007.6 0.0
20/04:00am 26.6 31.9 23.7 84 2.0 NW 2 9 1 5 1007.3 1007.3 0.0
20/03:30am 27.0 32.3 24.3 85 1.9 NW 4 7 2 4 1006.9 1006.9 0.0
20/03:00am 27.6 33.3 25.0 86 1.8 W 4 9 2 5 1006.7 1006.7 0.0
20/02:30am 28.1 33.7 25.7 87 1.7 W 7 11 4 6 1006.5 1006.5 0.0
20/02:00am 28.2 34.7 25.6 86 1.8 W 2 7 1 4 1006.6 1006.6 0.0
20/01:30am 28.4 34.0 25.8 86 1.8 NW 7 11 4 6 1006.7 1006.7 0.0
20/01:00am 28.5 34.2 25.9 86 1.8 NW 7 9 4 5 1007.1 1007.1 0.0
20/12:30am 28.3 34.4 26.5 90 1.3 N 7 9 4 5 1007.4 1007.4 0.0
20/12:00am 29.0 33.8 26.8 88 1.6 WSW 15 17 8 9 1007.8 1007.8 0.0

Other Formats:

Comma delimited format used in spreadsheet applications
http://www.bom.gov.au/fwo/IDW60801/IDW60801.95214.axf

JavaScript Object Notation format (JSON) in row-major order
http://www.bom.gov.au/fwo/IDW60801/IDW60801.95214.json